Time;durP1;ratioP1;P1;durP2;ratioP2;P2;SDS_P1;SDS_P2;PMS_P1;PMS_P2;Temp;Humidity;BMP_temperature;BMP_pressure;BME280_temperature;BME280_humidity;BME280_pressure;Samples;Min_cycle;Max_cycle;Signal;HPM_P1;HPM_P2
2023/06/29 00:00:20;;;;;;;36.45;27.63;;;20.60;76.20;;;;;;4987606;28;20053;-79
2023/06/29 00:02:49;;;;;;;36.80;25.73;;;20.60;76.10;;;;;;4985525;28;20065;-77
2023/06/29 00:05:15;;;;;;;32.67;26.45;;;20.50;76.30;;;;;;4983074;28;20064;-76
2023/06/29 00:07:41;;;;;;;33.30;26.08;;;20.60;76.30;;;;;;4986415;28;20038;-75
2023/06/29 00:10:09;;;;;;;32.38;24.40;;;20.50;76.20;;;;;;5000703;28;20022;-77
2023/06/29 00:12:36;;;;;;;31.92;24.30;;;20.50;76.20;;;;;;4965815;28;20090;-76
2023/06/29 00:15:02;;;;;;;30.88;24.40;;;20.40;76.60;;;;;;4972015;28;20054;-77
2023/06/29 00:17:28;;;;;;;29.50;23.33;;;20.50;76.50;;;;;;4976478;28;20042;-76
2023/06/29 00:19:53;;;;;;;34.08;24.85;;;20.40;76.60;;;;;;4984866;28;20044;-78
2023/06/29 00:22:19;;;;;;;33.90;25.05;;;20.40;76.60;;;;;;4982842;28;20041;-77
2023/06/29 00:24:55;;;;;;;33.65;25.33;;;20.30;76.90;;;;;;4991727;28;20374;-76
2023/06/29 00:27:21;;;;;;;32.03;24.88;;;20.30;77.00;;;;;;4985047;28;20034;-76
2023/06/29 00:29:46;;;;;;;32.20;24.98;;;20.30;77.10;;;;;;4980601;28;20080;-80
2023/06/29 00:32:13;;;;;;;31.20;24.83;;;20.30;77.10;;;;;;4978590;28;20046;-76
2023/06/29 00:34:39;;;;;;;32.33;25.45;;;20.20;77.10;;;;;;4981900;28;20073;-77
2023/06/29 00:37:04;;;;;;;31.98;25.77;;;20.30;77.00;;;;;;4982541;28;20039;-77
2023/06/29 00:39:32;;;;;;;31.77;25.30;;;20.10;77.20;;;;;;4979287;28;20034;-77
2023/06/29 00:41:57;;;;;;;34.30;26.70;;;20.10;77.50;;;;;;4986347;28;20491;-75
2023/06/29 00:44:23;;;;;;;32.60;25.75;;;20.10;77.80;;;;;;4980554;28;20049;-79
2023/06/29 00:46:51;;;;;;;33.53;24.58;;;20.10;77.80;;;;;;4982949;28;20037;-75
2023/06/29 00:49:18;;;;;;;33.75;26.23;;;20.00;77.80;;;;;;4986322;28;20022;-77
2023/06/29 00:51:48;;;;;;;32.95;25.58;;;20.00;77.90;;;;;;4972317;28;20492;-76
2023/06/29 00:54:13;;;;;;;32.05;25.90;;;19.90;78.00;;;;;;4963878;28;20488;-77
2023/06/29 00:56:39;;;;;;;31.08;25.48;;;19.90;78.20;;;;;;4970596;28;20035;-75
2023/06/29 00:59:05;;;;;;;31.33;25.42;;;19.90;78.10;;;;;;4969001;28;20026;-74
2023/06/29 01:01:31;;;;;;;31.40;25.40;;;19.90;78.20;;;;;;4967682;28;20046;-76
2023/06/29 01:03:57;;;;;;;33.10;25.60;;;19.90;78.30;;;;;;4970318;28;20057;-75
2023/06/29 01:06:31;;;;;;;33.55;25.63;;;19.90;78.30;;;;;;4970278;28;20069;-77
2023/06/29 01:09:04;;;;;;;31.70;25.00;;;19.80;78.30;;;;;;4994916;28;20126;-78
2023/06/29 01:11:40;;;;;;;36.10;25.42;;;19.80;78.50;;;;;;4989916;28;20042;-76
2023/06/29 01:14:09;;;;;;;31.65;24.48;;;19.70;78.60;;;;;;4989030;28;20078;-75
2023/06/29 01:16:36;;;;;;;31.55;24.70;;;19.70;78.80;;;;;;4988077;28;20038;-75
2023/06/29 01:19:05;;;;;;;33.22;25.30;;;19.70;78.90;;;;;;5007342;28;20041;-75
2023/06/29 01:21:35;;;;;;;35.10;26.75;;;19.70;78.90;;;;;;4988592;28;20043;-76
2023/06/29 01:24:03;;;;;;;33.92;24.92;;;19.70;78.90;;;;;;4991046;28;20026;-75
2023/06/29 01:26:29;;;;;;;35.83;26.00;;;19.70;78.90;;;;;;4977928;28;20061;-75
2023/06/29 01:28:56;;;;;;;34.05;25.85;;;19.70;79.00;;;;;;4987286;28;20470;-77
2023/06/29 01:31:27;;;;;;;34.47;25.48;;;19.70;78.90;;;;;;4990710;28;20064;-76
2023/06/29 01:33:53;;;;;;;38.55;26.67;;;19.80;78.80;;;;;;5002168;28;20045;-75
2023/06/29 01:36:31;;;;;;;32.70;25.42;;;19.80;78.70;;;;;;4985172;28;20058;-76
2023/06/29 01:39:10;;;;;;;34.38;26.15;;;19.80;78.80;;;;;;4993734;28;20117;-77
2023/06/29 01:41:40;;;;;;;36.78;26.65;;;19.80;78.80;;;;;;4981786;28;20501;-76
2023/06/29 01:44:10;;;;;;;34.40;26.83;;;19.90;78.70;;;;;;4971661;28;20455;-75
2023/06/29 01:46:37;;;;;;;33.17;25.70;;;19.80;78.60;;;;;;4961531;28;20049;-76
2023/06/29 01:49:03;;;;;;;31.13;25.23;;;19.90;78.40;;;;;;4970697;28;20501;-75
2023/06/29 01:51:29;;;;;;;34.35;26.38;;;19.90;78.40;;;;;;4962154;28;20117;-74
2023/06/29 01:53:54;;;;;;;33.65;26.40;;;19.90;78.30;;;;;;4970340;28;20038;-75
2023/06/29 01:56:20;;;;;;;32.03;26.75;;;19.90;78.50;;;;;;4968099;28;20454;-75
2023/06/29 01:58:45;;;;;;;35.67;25.73;;;19.90;78.50;;;;;;4969951;28;20023;-78
2023/06/29 02:01:11;;;;;;;37.92;28.20;;;19.90;78.40;;;;;;4964598;28;20086;-75
2023/06/29 02:03:38;;;;;;;40.10;30.05;;;20.00;78.40;;;;;;4964439;28;20034;-75
2023/06/29 02:06:04;;;;;;;37.92;30.17;;;20.00;78.20;;;;;;4982459;28;20038;-78
2023/06/29 02:08:30;;;;;;;38.00;29.95;;;19.90;78.30;;;;;;4967681;28;20035;-77
2023/06/29 02:10:55;;;;;;;41.28;32.33;;;19.90;78.40;;;;;;4965982;28;20035;-75
2023/06/29 02:13:21;;;;;;;40.10;31.15;;;19.80;78.50;;;;;;4963410;28;20085;-75
2023/06/29 02:15:47;;;;;;;39.67;30.13;;;19.80;78.50;;;;;;4968282;28;20039;-76
2023/06/29 02:18:12;;;;;;;40.17;30.92;;;19.90;78.40;;;;;;4970318;28;20380;-74
2023/06/29 02:20:38;;;;;;;38.25;29.23;;;19.80;78.60;;;;;;4969792;28;20061;-75
2023/06/29 02:23:04;;;;;;;39.97;30.92;;;19.80;78.50;;;;;;4980593;28;20114;-75
2023/06/29 02:25:29;;;;;;;40.90;30.88;;;19.80;78.60;;;;;;4964995;28;20452;-77
2023/06/29 02:27:55;;;;;;;42.80;34.10;;;19.80;78.70;;;;;;4960618;28;20476;-75
2023/06/29 02:30:21;;;;;;;39.15;31.13;;;19.80;78.60;;;;;;4967353;28;20415;-74
2023/06/29 02:32:46;;;;;;;40.63;31.48;;;19.90;78.70;;;;;;4967358;28;20043;-78
2023/06/29 02:35:12;;;;;;;46.00;32.72;;;19.80;78.60;;;;;;4964106;28;20043;-76
2023/06/29 02:37:38;;;;;;;39.63;31.60;;;19.80;78.70;;;;;;4970149;28;20039;-77
2023/06/29 02:40:04;;;;;;;42.58;32.22;;;19.80;78.60;;;;;;4970162;28;20035;-77
2023/06/29 02:42:30;;;;;;;41.47;32.30;;;19.90;78.50;;;;;;4965956;28;20039;-77
2023/06/29 02:44:56;;;;;;;41.78;31.80;;;19.90;78.50;;;;;;4965624;28;20393;-80
2023/06/29 02:47:21;;;;;;;40.33;31.45;;;19.90;78.40;;;;;;4966636;28;20117;-78
2023/06/29 02:49:47;;;;;;;40.15;30.77;;;19.90;78.40;;;;;;4967707;28;20832;-75
2023/06/29 02:52:13;;;;;;;40.25;30.20;;;19.90;78.50;;;;;;4965956;28;20031;-76
2023/06/29 02:54:38;;;;;;;41.42;31.90;;;19.90;78.50;;;;;;4970507;28;20073;-76
2023/06/29 02:57:04;;;;;;;44.88;31.63;;;19.90;78.70;;;;;;4965986;28;20090;-75
2023/06/29 02:59:30;;;;;;;40.67;31.30;;;19.90;78.70;;;;;;4966890;28;20367;-75
2023/06/29 03:01:55;;;;;;;42.17;30.67;;;19.90;78.50;;;;;;4963302;28;20035;-75
2023/06/29 03:04:21;;;;;;;42.15;30.42;;;19.90;78.60;;;;;;4967202;28;20637;-76
2023/06/29 03:06:47;;;;;;;41.60;31.35;;;19.90;78.70;;;;;;4962917;28;20031;-75
2023/06/29 03:09:12;;;;;;;40.83;33.13;;;19.90;78.80;;;;;;4966094;28;20377;-77
2023/06/29 03:11:38;;;;;;;42.58;33.55;;;19.90;78.70;;;;;;4971152;28;20046;-77
2023/06/29 03:14:04;;;;;;;41.75;33.53;;;19.80;78.80;;;;;;4968992;28;20059;-77
2023/06/29 03:16:29;;;;;;;45.50;33.30;;;19.90;78.90;;;;;;4971762;28;20035;-76
2023/06/29 03:18:55;;;;;;;45.20;33.92;;;19.90;78.80;;;;;;4964997;28;20363;-76
2023/06/29 03:21:21;;;;;;;49.00;36.60;;;19.90;78.70;;;;;;4967012;28;20519;-76
2023/06/29 03:23:48;;;;;;;46.53;35.35;;;19.90;78.70;;;;;;4986310;28;20050;-76
2023/06/29 03:26:14;;;;;;;55.78;40.50;;;19.90;78.70;;;;;;4967473;28;20026;-76
2023/06/29 03:28:39;;;;;;;60.80;45.17;;;19.90;78.70;;;;;;4967379;28;20031;-76
2023/06/29 03:31:05;;;;;;;58.15;44.45;;;19.80;78.80;;;;;;4966774;28;20026;-80
2023/06/29 03:33:31;;;;;;;64.70;49.38;;;19.90;79.10;;;;;;4965732;28;20039;-76
2023/06/29 03:35:56;;;;;;;59.75;47.97;;;19.80;79.10;;;;;;4963104;28;20379;-76
2023/06/29 03:38:22;;;;;;;62.35;46.67;;;19.90;79.10;;;;;;4964418;28;20086;-75
2023/06/29 03:40:48;;;;;;;61.97;48.92;;;19.90;79.10;;;;;;4962316;28;20100;-76
2023/06/29 03:43:13;;;;;;;60.75;46.08;;;19.90;79.00;;;;;;4961213;28;20399;-75
2023/06/29 03:45:39;;;;;;;56.90;43.70;;;19.90;79.20;;;;;;4959114;28;20030;-77
2023/06/29 03:48:05;;;;;;;50.38;40.40;;;19.80;79.30;;;;;;4987654;28;20026;-75
2023/06/29 03:50:31;;;;;;;50.95;40.92;;;19.80;79.40;;;;;;4983586;28;20034;-75
2023/06/29 03:52:56;;;;;;;50.53;40.13;;;19.90;79.50;;;;;;4994322;28;20086;-75
2023/06/29 03:55:24;;;;;;;49.03;37.60;;;19.80;79.60;;;;;;4983744;28;20022;-79
2023/06/29 03:57:50;;;;;;;47.50;38.85;;;19.80;79.60;;;;;;4976130;28;20104;-76
2023/06/29 04:00:16;;;;;;;49.00;39.65;;;19.80;79.80;;;;;;4965832;28;20023;-76
2023/06/29 04:02:42;;;;;;;50.35;39.28;;;19.80;79.70;;;;;;4954045;28;20463;-78
2023/06/29 04:05:08;;;;;;;48.90;37.78;;;19.80;79.70;;;;;;4968513;28;20781;-80
2023/06/29 04:07:34;;;;;;;47.05;38.17;;;19.80;79.90;;;;;;4964897;28;20411;-75
2023/06/29 04:10:00;;;;;;;44.03;35.33;;;19.80;79.80;;;;;;4965988;28;20022;-79
2023/06/29 04:12:26;;;;;;;46.15;36.20;;;19.80;79.90;;;;;;4966080;28;20035;-75
2023/06/29 04:14:51;;;;;;;38.70;32.92;;;19.80;80.00;;;;;;4987646;28;20054;-78
2023/06/29 04:17:17;;;;;;;43.67;34.67;;;19.80;80.00;;;;;;4962206;28;20035;-76
2023/06/29 04:19:43;;;;;;;44.13;33.50;;;19.80;80.10;;;;;;4964476;28;20080;-76
2023/06/29 04:22:08;;;;;;;43.78;33.55;;;19.80;80.10;;;;;;4966706;28;20058;-75
2023/06/29 04:24:34;;;;;;;41.42;31.92;;;19.80;80.20;;;;;;4963425;28;20022;-78
2023/06/29 04:27:00;;;;;;;52.30;33.72;;;19.80;80.20;;;;;;4964546;28;20030;-77
2023/06/29 04:29:26;;;;;;;42.70;33.55;;;19.80;80.20;;;;;;4962546;28;20019;-78
2023/06/29 04:31:54;;;;;;;44.75;35.05;;;19.80;80.30;;;;;;4963719;28;20081;-76
2023/06/29 04:34:20;;;;;;;41.10;32.85;;;19.80;80.40;;;;;;4967967;28;20026;-76
2023/06/29 04:36:46;;;;;;;42.38;32.97;;;19.80;80.50;;;;;;4966216;28;20133;-77
2023/06/29 04:39:15;;;;;;;41.63;31.30;;;19.70;80.50;;;;;;4965842;28;20094;-76
2023/06/29 04:41:42;;;;;;;42.60;32.53;;;19.70;80.50;;;;;;4963492;28;20042;-77
2023/06/29 04:44:08;;;;;;;39.17;31.38;;;19.80;80.60;;;;;;4966792;28;20050;-77
2023/06/29 04:46:39;;;;;;;39.75;32.13;;;19.80;80.60;;;;;;4971669;28;20151;-77
2023/06/29 04:49:06;;;;;;;47.17;33.85;;;19.80;80.60;;;;;;4964567;28;20034;-76
2023/06/29 04:51:38;;;;;;;39.80;32.22;;;19.80;80.40;;;;;;4960625;28;20039;-79
2023/06/29 04:54:07;;;;;;;41.13;31.73;;;19.80;80.30;;;;;;4970138;28;20027;-76
2023/06/29 04:56:33;;;;;;;42.55;32.15;;;19.80;80.20;;;;;;4963481;28;20039;-78
2023/06/29 04:58:59;;;;;;;44.67;32.03;;;19.90;80.10;;;;;;4964851;28;20038;-77
2023/06/29 05:01:24;;;;;;;41.00;31.98;;;19.90;80.30;;;;;;4965037;28;20042;-76
2023/06/29 05:03:50;;;;;;;38.65;30.73;;;19.90;80.10;;;;;;4966401;28;20075;-76
2023/06/29 05:06:16;;;;;;;40.25;30.80;;;19.80;80.10;;;;;;4965463;28;20031;-77
2023/06/29 05:08:42;;;;;;;41.55;31.20;;;19.90;80.20;;;;;;4966160;28;20038;-78
2023/06/29 05:11:07;;;;;;;43.15;32.22;;;19.90;80.00;;;;;;4968089;28;20022;-77
2023/06/29 05:13:35;;;;;;;41.15;32.30;;;19.90;80.00;;;;;;4998296;28;20035;-78
2023/06/29 05:16:03;;;;;;;44.08;32.08;;;19.90;79.90;;;;;;4962404;28;20084;-76
2023/06/29 05:18:29;;;;;;;43.80;32.83;;;19.90;80.10;;;;;;4958010;28;21571;-78
2023/06/29 05:20:55;;;;;;;41.20;32.35;;;20.00;79.90;;;;;;4965198;28;20039;-79
2023/06/29 05:23:20;;;;;;;41.58;31.83;;;19.90;80.10;;;;;;4981907;28;20051;-77
2023/06/29 05:25:46;;;;;;;40.30;31.35;;;20.00;79.90;;;;;;4962953;28;20606;-77
2023/06/29 05:28:12;;;;;;;40.25;31.60;;;20.00;79.70;;;;;;4966058;28;20039;-76
2023/06/29 05:30:37;;;;;;;40.53;32.25;;;20.00;79.70;;;;;;4964409;28;20150;-78
2023/06/29 05:33:04;;;;;;;42.45;32.05;;;20.10;79.40;;;;;;4963800;28;20117;-77
2023/06/29 05:35:31;;;;;;;43.35;33.22;;;20.10;79.20;;;;;;4967242;28;20031;-75
2023/06/29 05:37:57;;;;;;;44.03;33.58;;;20.20;79.00;;;;;;4965798;28;20035;-78
2023/06/29 05:40:23;;;;;;;44.72;34.35;;;20.20;78.90;;;;;;4983268;28;20053;-76
2023/06/29 05:42:49;;;;;;;39.30;31.50;;;20.20;78.90;;;;;;4968471;28;20061;-76
2023/06/29 05:45:15;;;;;;;44.35;33.00;;;20.30;78.90;;;;;;4967615;28;20038;-79
2023/06/29 05:47:40;;;;;;;42.47;32.50;;;20.30;78.80;;;;;;4967476;28;20486;-75
2023/06/29 05:50:06;;;;;;;41.17;32.20;;;20.30;78.50;;;;;;4971399;28;20035;-76
2023/06/29 05:52:33;;;;;;;40.75;32.13;;;20.30;78.50;;;;;;4968803;28;20046;-78
2023/06/29 05:54:59;;;;;;;41.78;32.47;;;20.40;78.40;;;;;;4967821;28;20050;-76
2023/06/29 05:57:25;;;;;;;40.63;31.80;;;20.40;78.40;;;;;;4963097;28;20035;-77
2023/06/29 05:59:51;;;;;;;39.45;31.83;;;20.50;78.30;;;;;;4971211;28;20034;-77
2023/06/29 06:02:17;;;;;;;43.35;33.80;;;20.60;78.10;;;;;;4963304;28;20051;-75
2023/06/29 06:04:42;;;;;;;37.30;29.88;;;20.60;77.70;;;;;;4969292;28;20076;-75
2023/06/29 06:07:09;;;;;;;43.15;34.15;;;20.70;77.90;;;;;;4970564;28;20084;-76
2023/06/29 06:09:35;;;;;;;46.28;33.83;;;20.70;77.50;;;;;;4969950;28;20022;-78
2023/06/29 06:12:01;;;;;;;42.72;32.20;;;20.80;77.30;;;;;;4971496;28;20455;-76
2023/06/29 06:14:26;;;;;;;41.88;32.08;;;20.90;76.90;;;;;;4969046;28;20546;-75
2023/06/29 06:16:52;;;;;;;39.72;33.03;;;20.90;76.90;;;;;;4971645;28;20069;-75
2023/06/29 06:19:18;;;;;;;43.30;31.67;;;21.00;76.70;;;;;;4967732;28;20027;-74
2023/06/29 06:21:44;;;;;;;46.47;33.33;;;21.00;76.80;;;;;;4968389;28;20050;-78
2023/06/29 06:24:10;;;;;;;40.00;31.73;;;21.10;76.50;;;;;;4970827;28;20388;-79
2023/06/29 06:26:35;;;;;;;43.50;32.55;;;21.10;76.80;;;;;;4986606;28;21084;-76
2023/06/29 06:29:01;;;;;;;41.78;33.42;;;21.10;76.40;;;;;;4975549;28;20038;-75
2023/06/29 06:31:27;;;;;;;44.00;32.92;;;21.20;76.20;;;;;;4982327;28;20034;-74
2023/06/29 06:33:57;;;;;;;41.40;33.55;;;21.30;76.10;;;;;;4967697;28;20045;-74
2023/06/29 06:36:25;;;;;;;39.03;31.15;;;21.40;75.60;;;;;;4966472;28;20030;-76
2023/06/29 06:38:51;;;;;;;39.95;31.98;;;21.60;74.70;;;;;;4968769;28;20034;-75
2023/06/29 06:41:16;;;;;;;37.78;30.05;;;21.70;74.20;;;;;;4975679;28;20051;-75
2023/06/29 06:43:42;;;;;;;39.72;30.33;;;21.80;73.80;;;;;;4996100;28;20034;-74
2023/06/29 06:46:08;;;;;;;35.75;26.50;;;21.90;73.20;;;;;;4961960;28;20590;-75
2023/06/29 06:48:34;;;;;;;34.83;25.90;;;21.90;72.70;;;;;;4983282;28;20031;-75
2023/06/29 06:50:59;;;;;;;33.33;24.77;;;22.10;72.20;;;;;;4965063;28;20456;-76
2023/06/29 06:53:25;;;;;;;33.30;24.77;;;22.30;71.20;;;;;;4971428;28;20507;-81
2023/06/29 06:55:51;;;;;;;34.78;24.95;;;22.60;70.90;;;;;;4963928;28;20031;-78
2023/06/29 06:58:16;;;;;;;30.63;23.33;;;22.60;70.20;;;;;;4967267;28;20486;-78
2023/06/29 07:00:42;;;;;;;33.50;25.55;;;22.80;69.70;;;;;;4981687;28;20030;-78
2023/06/29 07:03:08;;;;;;;31.10;25.05;;;22.80;70.00;;;;;;4967690;28;20289;-78
2023/06/29 07:05:34;;;;;;;32.60;24.73;;;22.80;69.60;;;;;;4976195;28;20031;-79
2023/06/29 07:07:59;;;;;;;33.63;24.65;;;22.60;70.40;;;;;;4968218;28;20046;-79
2023/06/29 07:10:25;;;;;;;31.50;24.10;;;22.70;70.20;;;;;;4969931;28;20027;-78
2023/06/29 07:12:51;;;;;;;34.25;26.05;;;22.60;71.30;;;;;;4964823;28;20045;-78
2023/06/29 07:15:17;;;;;;;30.67;24.30;;;22.40;70.90;;;;;;4981836;28;20051;-79
2023/06/29 07:17:42;;;;;;;31.23;23.67;;;22.50;71.10;;;;;;4963458;28;20125;-79
2023/06/29 07:20:08;;;;;;;34.63;24.65;;;22.30;71.90;;;;;;4976121;28;20407;-79
2023/06/29 07:22:34;;;;;;;31.92;23.90;;;22.40;72.40;;;;;;4961641;28;20054;-79
2023/06/29 07:25:00;;;;;;;29.88;24.35;;;22.60;71.10;;;;;;4964808;28;20027;-79
2023/06/29 07:27:26;;;;;;;28.70;23.45;;;22.70;71.00;;;;;;4962043;28;20038;-75
2023/06/29 07:29:53;;;;;;;32.58;24.15;;;22.80;71.20;;;;;;4993007;28;20435;-77
2023/06/29 07:32:19;;;;;;;29.95;23.20;;;23.00;70.10;;;;;;4964281;28;20038;-74
2023/06/29 07:34:45;;;;;;;32.17;24.27;;;23.10;70.50;;;;;;4971048;28;20043;-68
2023/06/29 07:37:10;;;;;;;31.42;24.50;;;23.40;69.60;;;;;;4961379;28;20053;-69
2023/06/29 07:39:36;;;;;;;31.08;23.25;;;23.50;68.90;;;;;;4960948;28;20701;-71
2023/06/29 07:42:02;;;;;;;35.55;26.02;;;23.80;68.10;;;;;;4970679;28;20487;-70
2023/06/29 07:44:28;;;;;;;30.70;24.60;;;24.00;66.40;;;;;;4962147;28;20031;-71
2023/06/29 07:46:54;;;;;;;34.28;24.13;;;24.10;66.20;;;;;;4962910;28;20121;-72
2023/06/29 07:49:21;;;;;;;29.88;24.48;;;24.30;66.10;;;;;;4966474;28;20110;-71
2023/06/29 07:51:47;;;;;;;36.33;25.92;;;24.30;66.10;;;;;;4962457;28;20638;-70
2023/06/29 07:54:13;;;;;;;32.75;24.80;;;24.50;65.00;;;;;;4964625;28;20089;-70
2023/06/29 07:56:38;;;;;;;34.45;26.85;;;24.60;64.90;;;;;;4966327;28;20187;-71
2023/06/29 07:59:04;;;;;;;34.22;26.02;;;24.50;64.50;;;;;;4963755;28;20035;-72
2023/06/29 08:01:30;;;;;;;34.50;26.00;;;24.40;65.10;;;;;;4965942;28;20076;-70
2023/06/29 08:03:56;;;;;;;33.75;27.17;;;24.50;64.80;;;;;;4963862;28;20027;-71
2023/06/29 08:06:21;;;;;;;36.15;29.35;;;24.50;64.50;;;;;;4967903;28;20041;-70
2023/06/29 08:08:48;;;;;;;37.97;27.67;;;24.60;63.90;;;;;;4964191;28;20069;-71
2023/06/29 08:11:14;;;;;;;35.75;27.33;;;24.60;64.20;;;;;;4959936;28;20043;-72
2023/06/29 08:13:40;;;;;;;35.75;27.40;;;24.60;63.80;;;;;;4963993;28;20078;-71
2023/06/29 08:16:06;;;;;;;39.03;27.92;;;24.60;63.70;;;;;;4963600;28;20027;-72
2023/06/29 08:18:32;;;;;;;33.00;26.05;;;24.60;63.90;;;;;;4979219;28;20027;-71
2023/06/29 08:20:57;;;;;;;34.50;27.10;;;24.80;64.30;;;;;;4963196;28;20038;-70
2023/06/29 08:23:23;;;;;;;36.15;27.13;;;25.10;63.40;;;;;;4965222;28;20460;-70
2023/06/29 08:25:48;;;;;;;36.53;29.58;;;25.50;61.00;;;;;;4965455;28;20043;-71
2023/06/29 08:28:14;;;;;;;33.30;27.70;;;25.50;61.10;;;;;;4964424;28;20027;-72
2023/06/29 08:30:40;;;;;;;35.03;27.20;;;25.30;60.50;;;;;;4965382;28;20494;-71
2023/06/29 08:33:06;;;;;;;33.97;26.10;;;25.50;61.20;;;;;;4967059;28;20105;-72
2023/06/29 08:35:31;;;;;;;33.58;26.92;;;25.60;61.00;;;;;;4964978;28;20034;-69
2023/06/29 08:37:57;;;;;;;33.78;27.60;;;25.70;60.50;;;;;;4960807;28;20042;-72
2023/06/29 08:40:23;;;;;;;41.85;30.20;;;25.80;60.40;;;;;;4968821;28;20045;-71
2023/06/29 08:42:49;;;;;;;36.30;30.08;;;25.80;58.90;;;;;;4955413;28;20307;-72
2023/06/29 08:45:15;;;;;;;33.95;28.33;;;25.50;58.70;;;;;;4967973;28;20555;-70
2023/06/29 08:47:43;;;;;;;35.90;28.63;;;25.40;60.30;;;;;;4968781;28;20118;-72
2023/06/29 08:50:10;;;;;;;35.75;28.63;;;25.50;59.30;;;;;;4967917;28;20287;-71
2023/06/29 08:52:36;;;;;;;37.17;30.48;;;25.70;59.50;;;;;;4959737;28;20031;-70
2023/06/29 08:55:03;;;;;;;35.83;29.83;;;25.60;58.70;;;;;;4959823;28;20121;-70
2023/06/29 08:57:32;;;;;;;34.42;28.60;;;25.50;58.50;;;;;;4963826;28;20062;-71
2023/06/29 08:59:59;;;;;;;36.38;28.15;;;25.40;59.60;;;;;;4960374;28;20101;-70
2023/06/29 09:02:26;;;;;;;34.65;28.30;;;25.10;60.70;;;;;;4963286;28;20121;-70
2023/06/29 09:04:52;;;;;;;35.92;26.42;;;24.70;61.70;;;;;;4964605;28;20033;-70
2023/06/29 09:07:18;;;;;;;32.90;27.00;;;24.50;63.40;;;;;;4969394;28;20034;-69
2023/06/29 09:09:43;;;;;;;35.00;26.92;;;24.20;64.10;;;;;;4970905;28;20113;-71
2023/06/29 09:12:12;;;;;;;34.92;27.52;;;24.10;64.70;;;;;;4964765;28;20322;-71
2023/06/29 09:14:43;;;;;;;37.22;29.40;;;24.20;64.50;;;;;;4966846;28;20154;-70
2023/06/29 09:17:17;;;;;;;31.27;26.08;;;23.90;65.40;;;;;;4967450;28;20731;-71
2023/06/29 09:19:54;;;;;;;36.90;29.05;;;24.10;65.70;;;;;;4969345;28;20030;-74
2023/06/29 09:22:21;;;;;;;36.63;28.98;;;24.00;65.50;;;;;;4969925;28;20058;-72
2023/06/29 09:24:48;;;;;;;37.25;30.30;;;24.30;64.40;;;;;;4972258;28;20034;-71
2023/06/29 09:27:13;;;;;;;37.83;30.02;;;24.60;62.60;;;;;;4971589;28;20051;-72
2023/06/29 09:29:39;;;;;;;38.55;31.40;;;24.90;61.70;;;;;;4975632;28;20044;-71
2023/06/29 09:32:13;;;;;;;39.47;32.80;;;25.00;61.40;;;;;;4963987;28;20042;-72
2023/06/29 09:34:43;;;;;;;;;;;25.30;60.50;;;;;;4971947;28;20038;-73
2023/06/29 09:37:13;;;;;;;40.15;31.95;;;25.40;59.80;;;;;;4966664;28;19928;-71
2023/06/29 09:39:42;;;;;;;39.55;31.17;;;25.80;59.30;;;;;;4967907;28;20058;-72
2023/06/29 09:42:09;;;;;;;39.38;33.38;;;26.10;58.60;;;;;;4971707;28;20134;-75
2023/06/29 09:44:36;;;;;;;42.60;33.75;;;26.00;58.20;;;;;;4970542;28;20027;-70
2023/06/29 09:47:06;;;;;;;42.03;33.60;;;25.80;57.70;;;;;;4970698;28;20037;-74
2023/06/29 09:49:43;;;;;;;39.72;33.75;;;25.80;57.80;;;;;;4967013;28;20480;-73
2023/06/29 09:52:08;;;;;;;38.60;32.47;;;26.00;57.50;;;;;;4968494;28;20038;-74
2023/06/29 09:54:35;;;;;;;42.78;33.20;;;25.90;57.80;;;;;;4968948;28;20176;-71
2023/06/29 09:57:02;;;;;;;43.50;35.00;;;25.90;58.40;;;;;;4966137;28;20118;-71
2023/06/29 09:59:33;;;;;;;42.47;34.28;;;25.70;57.80;;;;;;4969067;28;20121;-74
2023/06/29 10:01:59;;;;;;;43.63;33.90;;;25.90;58.00;;;;;;4968667;28;20472;-74
2023/06/29 10:04:25;;;;;;;38.67;31.80;;;25.90;57.80;;;;;;4968376;28;20104;-74
2023/06/29 10:07:02;;;;;;;39.47;32.58;;;25.80;57.80;;;;;;4965775;28;20039;-73
2023/06/29 10:09:28;;;;;;;43.10;34.20;;;25.80;58.30;;;;;;4969271;28;20038;-73
2023/06/29 10:11:56;;;;;;;44.88;35.85;;;25.50;59.00;;;;;;4968479;28;20150;-73
2023/06/29 10:14:23;;;;;;;43.63;35.45;;;24.60;61.70;;;;;;4971995;28;20554;-74
2023/06/29 10:16:54;;;;;;;46.72;35.42;;;23.80;63.80;;;;;;4966675;28;20542;-74
2023/06/29 10:19:24;;;;;;;45.53;35.42;;;23.50;64.90;;;;;;4964281;28;20030;-75
2023/06/29 10:22:05;;;;;;;46.50;35.42;;;23.50;65.90;;;;;;4966654;28;20058;-76
2023/06/29 10:24:45;;;;;;;43.22;34.22;;;23.50;66.30;;;;;;4972634;28;20070;-74
2023/06/29 10:27:12;;;;;;;45.83;36.67;;;23.50;66.90;;;;;;4962458;28;20488;-75
2023/06/29 10:29:45;;;;;;;46.45;35.08;;;23.80;66.80;;;;;;4967777;28;20104;-74
2023/06/29 10:32:31;;;;;;;42.33;35.30;;;24.10;66.10;;;;;;4966081;28;20049;-73
2023/06/29 10:35:11;;;;;;;41.95;33.38;;;24.20;65.50;;;;;;4964208;28;20026;-76
2023/06/29 10:37:38;;;;;;;42.33;34.28;;;24.40;65.00;;;;;;4999153;28;20031;-83
2023/06/29 10:40:14;;;;;;;44.63;34.92;;;25.00;63.80;;;;;;4992965;28;20023;-77
2023/06/29 10:42:40;;;;;;;40.05;32.60;;;24.70;63.40;;;;;;4981148;28;20473;-74
2023/06/29 10:45:18;;;;;;;41.85;34.42;;;25.10;62.40;;;;;;4983411;28;20479;-74
2023/06/29 10:47:56;;;;;;;41.50;33.53;;;25.80;60.30;;;;;;4981497;28;20185;-75
2023/06/29 10:50:34;;;;;;;37.90;31.05;;;26.10;58.50;;;;;;4980183;28;20645;-75
2023/06/29 10:53:02;;;;;;;41.47;32.85;;;26.20;57.40;;;;;;4979019;28;20488;-76
2023/06/29 10:55:44;;;;;;;31.08;26.92;;;25.80;58.60;;;;;;4982803;28;20042;-76
2023/06/29 10:58:23;;;;;;;34.63;26.52;;;24.80;61.70;;;;;;4981376;28;20148;-76
2023/06/29 11:00:51;;;;;;;30.27;24.40;;;23.70;67.90;;;;;;4978941;28;20034;-76
2023/06/29 11:03:19;;;;;;;31.33;24.55;;;23.20;69.30;;;;;;4996730;28;20042;-77
2023/06/29 11:05:48;;;;;;;29.63;24.00;;;23.00;70.80;;;;;;4979758;28;20044;-82
2023/06/29 11:08:14;;;;;;;29.88;23.67;;;23.00;71.70;;;;;;4981604;28;20073;-80
2023/06/29 11:10:39;;;;;;;28.88;23.00;;;23.00;71.10;;;;;;4982798;28;20493;-81
2023/06/29 11:13:09;;;;;;;30.88;22.90;;;23.00;70.50;;;;;;4982731;28;20076;-81
2023/06/29 11:15:35;;;;;;;28.20;22.23;;;23.10;71.00;;;;;;4984869;28;20479;-80
2023/06/29 11:18:06;;;;;;;32.35;24.95;;;23.40;70.10;;;;;;5002448;28;20057;-81
2023/06/29 11:20:35;;;;;;;27.98;22.38;;;23.40;69.70;;;;;;4994874;28;20027;-81
2023/06/29 11:23:01;;;;;;;26.67;22.25;;;23.50;69.70;;;;;;4982083;28;20052;-81
2023/06/29 11:25:28;;;;;;;29.02;23.27;;;24.00;69.90;;;;;;4985825;28;20034;-81
2023/06/29 11:27:54;;;;;;;29.60;23.27;;;24.40;67.60;;;;;;4998798;28;20387;-81
2023/06/29 11:30:20;;;;;;;31.48;24.13;;;24.40;66.90;;;;;;4985615;28;20030;-82
2023/06/29 11:32:49;;;;;;;29.55;22.33;;;24.70;65.50;;;;;;4983742;28;20042;-81
2023/06/29 11:35:15;;;;;;;29.10;22.85;;;25.00;64.30;;;;;;4983071;28;20033;-82
2023/06/29 11:37:41;;;;;;;25.33;20.30;;;25.10;63.60;;;;;;4985262;28;20039;-82
2023/06/29 11:40:20;;;;;;;25.77;19.95;;;25.30;62.60;;;;;;4983006;28;20038;-81
2023/06/29 11:42:46;;;;;;;24.50;19.10;;;25.40;62.40;;;;;;4981720;28;20061;-81
2023/06/29 11:45:14;;;;;;;25.58;17.67;;;25.10;62.80;;;;;;4981577;28;20018;-81
2023/06/29 11:47:39;;;;;;;23.75;17.23;;;24.70;63.90;;;;;;4983969;28;20197;-83
2023/06/29 11:50:07;;;;;;;22.50;17.73;;;24.90;64.60;;;;;;4981806;28;20026;-82
2023/06/29 11:52:34;;;;;;;26.20;18.15;;;24.80;63.90;;;;;;4987198;28;20045;-81
2023/06/29 11:55:06;;;;;;;21.13;16.05;;;24.50;64.30;;;;;;4988273;28;20030;-82
2023/06/29 11:57:33;;;;;;;22.08;16.05;;;24.50;64.50;;;;;;4985042;28;20030;-84
2023/06/29 11:59:58;;;;;;;20.35;16.02;;;24.70;64.40;;;;;;4988240;28;20097;-81
2023/06/29 12:02:24;;;;;;;24.35;17.20;;;24.90;63.40;;;;;;4983823;28;20556;-81
2023/06/29 12:04:58;;;;;;;22.42;16.63;;;24.90;63.20;;;;;;4985769;28;20030;-83
2023/06/29 12:07:44;;;;;;;23.58;17.02;;;24.90;63.10;;;;;;4999975;28;20045;-86
2023/06/29 12:10:12;;;;;;;20.90;15.82;;;24.90;62.60;;;;;;4986048;28;20030;-85
2023/06/29 12:12:41;;;;;;;21.27;16.73;;;25.00;62.60;;;;;;4985877;28;20442;-84
2023/06/29 12:15:18;;;;;;;19.88;15.07;;;25.10;62.10;;;;;;4988443;28;20046;-80
2023/06/29 12:17:44;;;;;;;20.13;15.25;;;25.00;62.00;;;;;;4983595;28;20050;-84
2023/06/29 12:20:15;;;;;;;19.27;15.50;;;24.80;62.00;;;;;;4987785;28;20435;-82
2023/06/29 12:22:45;;;;;;;20.65;15.50;;;24.80;62.20;;;;;;4988673;28;20471;-82
2023/06/29 12:25:16;;;;;;;21.83;16.05;;;24.80;61.00;;;;;;4985865;28;20447;-82
2023/06/29 12:27:45;;;;;;;22.90;16.33;;;24.50;62.00;;;;;;4989081;28;20499;-82